sensor_id;sensor_type;location;lat;lon;timestamp;pressure;altitude;pressure_sealevel;temperature
70969;BMP280;58630;43.022;25.100;2022-11-15T00:02:23;100133.91;;;13.97
70969;BMP280;58630;43.022;25.100;2022-11-15T00:04:48;100127.88;;;13.97
70969;BMP280;58630;43.022;25.100;2022-11-15T00:07:13;100136.53;;;13.97
70969;BMP280;58630;43.022;25.100;2022-11-15T00:09:38;100135.72;;;13.97
70969;BMP280;58630;43.022;25.100;2022-11-15T00:12:04;100129.97;;;13.95
70969;BMP280;58630;43.022;25.100;2022-11-15T00:14:29;100126.56;;;13.94
70969;BMP280;58630;43.022;25.100;2022-11-15T00:17:04;100130.22;;;13.93
70969;BMP280;58630;43.022;25.100;2022-11-15T00:19:29;100132.84;;;13.93
70969;BMP280;58630;43.022;25.100;2022-11-15T00:21:54;100132.03;;;13.93
70969;BMP280;58630;43.022;25.100;2022-11-15T00:24:19;100130.50;;;13.92
70969;BMP280;58630;43.022;25.100;2022-11-15T00:26:45;100129.72;;;13.91
70969;BMP280;58630;43.022;25.100;2022-11-15T00:29:10;100129.72;;;13.91
70969;BMP280;58630;43.022;25.100;2022-11-15T00:31:35;100129.94;;;13.90
70969;BMP280;58630;43.022;25.100;2022-11-15T00:34:01;100122.38;;;13.88
70969;BMP280;58630;43.022;25.100;2022-11-15T00:36:26;100123.97;;;13.89
70969;BMP280;58630;43.022;25.100;2022-11-15T00:38:51;100118.19;;;13.87
70969;BMP280;58630;43.022;25.100;2022-11-15T00:41:16;100115.59;;;13.87
70969;BMP280;58630;43.022;25.100;2022-11-15T00:43:42;100121.88;;;13.86
70969;BMP280;58630;43.022;25.100;2022-11-15T00:46:08;100116.66;;;13.86
70969;BMP280;58630;43.022;25.100;2022-11-15T00:48:37;100115.06;;;13.85
70969;BMP280;58630;43.022;25.100;2022-11-15T00:51:02;100100.44;;;13.84
70969;BMP280;58630;43.022;25.100;2022-11-15T00:53:27;100100.44;;;13.84
70969;BMP280;58630;43.022;25.100;2022-11-15T00:55:52;100106.69;;;13.83
70969;BMP280;58630;43.022;25.100;2022-11-15T00:58:18;100109.31;;;13.83
70969;BMP280;58630;43.022;25.100;2022-11-15T01:00:44;100095.72;;;13.81
70969;BMP280;58630;43.022;25.100;2022-11-15T01:03:09;100093.91;;;13.82
70969;BMP280;58630;43.022;25.100;2022-11-15T01:05:36;100095.72;;;13.81
70969;BMP280;58630;43.022;25.100;2022-11-15T01:08:01;100090.50;;;13.81
70969;BMP280;58630;43.022;25.100;2022-11-15T01:10:27;100088.94;;;13.80
70969;BMP280;58630;43.022;25.100;2022-11-15T01:12:52;100077.97;;;13.78
70969;BMP280;58630;43.022;25.100;2022-11-15T01:15:17;100084.00;;;13.79
70969;BMP280;58630;43.022;25.100;2022-11-15T01:17:43;100084.22;;;13.77
70969;BMP280;58630;43.022;25.100;2022-11-15T01:20:08;100073.00;;;13.77
70969;BMP280;58630;43.022;25.100;2022-11-15T01:22:34;100077.44;;;13.76
70969;BMP280;58630;43.022;25.100;2022-11-15T01:24:59;100081.09;;;13.75
70969;BMP280;58630;43.022;25.100;2022-11-15T01:27:24;100072.22;;;13.76
70969;BMP280;58630;43.022;25.100;2022-11-15T01:29:50;100081.09;;;13.75
70969;BMP280;58630;43.022;25.100;2022-11-15T01:32:15;100074.31;;;13.75
70969;BMP280;58630;43.022;25.100;2022-11-15T01:34:40;100077.69;;;13.75
70969;BMP280;58630;43.022;25.100;2022-11-15T01:37:06;100083.19;;;13.74
70969;BMP280;58630;43.022;25.100;2022-11-15T01:39:31;100081.63;;;13.73
70969;BMP280;58630;43.022;25.100;2022-11-15T01:41:56;100073.78;;;13.73
70969;BMP280;58630;43.022;25.100;2022-11-15T01:47:00;100087.88;;;13.72
70969;BMP280;58630;43.022;25.100;2022-11-15T01:49:26;100080.03;;;13.72
70969;BMP280;58630;43.022;25.100;2022-11-15T01:51:52;100084.50;;;13.71
70969;BMP280;58630;43.022;25.100;2022-11-15T01:54:19;100083.69;;;13.71
70969;BMP280;58630;43.022;25.100;2022-11-15T01:56:59;100082.91;;;13.70
70969;BMP280;58630;43.022;25.100;2022-11-15T01:59:25;100078.47;;;13.71
70969;BMP280;58630;43.022;25.100;2022-11-15T02:01:51;100078.75;;;13.69
70969;BMP280;58630;43.022;25.100;2022-11-15T02:04:17;100070.13;;;13.69
70969;BMP280;58630;43.022;25.100;2022-11-15T02:06:44;100072.75;;;13.69
70969;BMP280;58630;43.022;25.100;2022-11-15T02:09:10;100076.44;;;13.68
70969;BMP280;58630;43.022;25.100;2022-11-15T02:11:36;100071.44;;;13.66
70969;BMP280;58630;43.022;25.100;2022-11-15T02:14:01;100071.44;;;13.66
70969;BMP280;58630;43.022;25.100;2022-11-15T02:19:21;100068.06;;;13.66
70969;BMP280;58630;43.022;25.100;2022-11-15T02:29:59;100057.06;;;13.64
70969;BMP280;58630;43.022;25.100;2022-11-15T02:32:30;100058.88;;;13.63
70969;BMP280;58630;43.022;25.100;2022-11-15T02:35:11;100064.41;;;13.62
70969;BMP280;58630;43.022;25.100;2022-11-15T02:37:48;100056.56;;;13.62
70969;BMP280;58630;43.022;25.100;2022-11-15T02:40:20;100061.78;;;13.62
70969;BMP280;58630;43.022;25.100;2022-11-15T02:42:55;100058.38;;;13.61
70969;BMP280;58630;43.022;25.100;2022-11-15T02:45:42;100055.00;;;13.61
70969;BMP280;58630;43.022;25.100;2022-11-15T02:48:09;100050.81;;;13.60
70969;BMP280;58630;43.022;25.100;2022-11-15T02:50:35;100056.03;;;13.60
70969;BMP280;58630;43.022;25.100;2022-11-15T02:53:01;100044.78;;;13.59
70969;BMP280;58630;43.022;25.100;2022-11-15T02:55:30;100048.44;;;13.58
70969;BMP280;58630;43.022;25.100;2022-11-15T03:00:44;100047.66;;;13.58
70969;BMP280;58630;43.022;25.100;2022-11-15T03:08:32;100049.78;;;13.56
70969;BMP280;58630;43.022;25.100;2022-11-15T03:11:09;100054.19;;;13.55
70969;BMP280;58630;43.022;25.100;2022-11-15T03:13:36;100049.78;;;13.56
70969;BMP280;58630;43.022;25.100;2022-11-15T03:16:03;100048.19;;;13.55
70969;BMP280;58630;43.022;25.100;2022-11-15T03:18:35;100042.16;;;13.54
70969;BMP280;58630;43.022;25.100;2022-11-15T03:21:03;100046.63;;;13.54
70969;BMP280;58630;43.022;25.100;2022-11-15T03:23:29;100032.00;;;13.53
70969;BMP280;58630;43.022;25.100;2022-11-15T03:25:55;100036.41;;;13.52
70969;BMP280;58630;43.022;25.100;2022-11-15T03:28:22;100038.25;;;13.52
70969;BMP280;58630;43.022;25.100;2022-11-15T03:30:48;100038.25;;;13.52
70969;BMP280;58630;43.022;25.100;2022-11-15T03:33:14;100031.47;;;13.51
70969;BMP280;58630;43.022;25.100;2022-11-15T03:35:42;100034.06;;;13.51
70969;BMP280;58630;43.022;25.100;2022-11-15T03:40:42;100025.72;;;13.49
70969;BMP280;58630;43.022;25.100;2022-11-15T03:43:20;100022.09;;;13.50
70969;BMP280;58630;43.022;25.100;2022-11-15T03:48:43;100014.53;;;13.48
70969;BMP280;58630;43.022;25.100;2022-11-15T03:51:12;100011.09;;;13.48
70969;BMP280;58630;43.022;25.100;2022-11-15T03:53:37;100018.94;;;13.48
70969;BMP280;58630;43.022;25.100;2022-11-15T03:56:03;100016.59;;;13.46
70969;BMP280;58630;43.022;25.100;2022-11-15T03:58:31;100022.06;;;13.45
70969;BMP280;58630;43.022;25.100;2022-11-15T04:00:56;100010.06;;;13.44
70969;BMP280;58630;43.022;25.100;2022-11-15T04:03:22;100013.44;;;13.44
70969;BMP280;58630;43.022;25.100;2022-11-15T04:05:47;100010.06;;;13.44
70969;BMP280;58630;43.022;25.100;2022-11-15T04:08:12;100010.84;;;13.44
70969;BMP280;58630;43.022;25.100;2022-11-15T04:10:38;100008.50;;;13.43
70969;BMP280;58630;43.022;25.100;2022-11-15T04:13:04;100011.09;;;13.43
70969;BMP280;58630;43.022;25.100;2022-11-15T04:15:29;100001.69;;;13.42
70969;BMP280;58630;43.022;25.100;2022-11-15T04:18:03;100006.91;;;13.42
70969;BMP280;58630;43.022;25.100;2022-11-15T04:20:29;99999.34;;;13.40
70969;BMP280;58630;43.022;25.100;2022-11-15T04:23:14;100003.00;;;13.39
70969;BMP280;58630;43.022;25.100;2022-11-15T04:25:59;99996.97;;;13.39
70969;BMP280;58630;43.022;25.100;2022-11-15T04:28:25;99997.78;;;13.39
70969;BMP280;58630;43.022;25.100;2022-11-15T04:30:50;99994.38;;;13.39
70969;BMP280;58630;43.022;25.100;2022-11-15T04:33:15;99989.44;;;13.37
70969;BMP280;58630;43.022;25.100;2022-11-15T04:35:41;99990.22;;;13.38
70969;BMP280;58630;43.022;25.100;2022-11-15T04:38:07;99993.88;;;13.37
70969;BMP280;58630;43.022;25.100;2022-11-15T04:40:33;99989.72;;;13.36
70969;BMP280;58630;43.022;25.100;2022-11-15T04:43:19;99995.97;;;13.35
70969;BMP280;58630;43.022;25.100;2022-11-15T04:45:44;99990.75;;;13.35
70969;BMP280;58630;43.022;25.100;2022-11-15T04:48:09;99998.03;;;13.33
70969;BMP280;58630;43.022;25.100;2022-11-15T04:50:34;99994.63;;;13.32
70969;BMP280;58630;43.022;25.100;2022-11-15T04:52:59;99992.03;;;13.32
70969;BMP280;58630;43.022;25.100;2022-11-15T04:55:25;99993.88;;;13.32
70969;BMP280;58630;43.022;25.100;2022-11-15T04:57:57;99991.28;;;13.32
70969;BMP280;58630;43.022;25.100;2022-11-15T05:03:34;99992.31;;;13.31
70969;BMP280;58630;43.022;25.100;2022-11-15T05:06:18;99987.34;;;13.29
70969;BMP280;58630;43.022;25.100;2022-11-15T05:08:44;99988.13;;;13.30
70969;BMP280;58630;43.022;25.100;2022-11-15T05:11:09;99990.75;;;13.30
70969;BMP280;58630;43.022;25.100;2022-11-15T05:13:34;99997.78;;;13.29
70969;BMP280;58630;43.022;25.100;2022-11-15T05:16:00;99990.22;;;13.28
70969;BMP280;58630;43.022;25.100;2022-11-15T05:18:25;99988.38;;;13.28
70969;BMP280;58630;43.022;25.100;2022-11-15T05:20:50;99988.63;;;13.27
70969;BMP280;58630;43.022;25.100;2022-11-15T05:23:15;99984.47;;;13.26
70969;BMP280;58630;43.022;25.100;2022-11-15T05:25:41;99986.28;;;13.25
70969;BMP280;58630;43.022;25.100;2022-11-15T05:28:06;99981.84;;;13.26
70969;BMP280;58630;43.022;25.100;2022-11-15T05:30:31;99994.91;;;13.26
70969;BMP280;58630;43.022;25.100;2022-11-15T05:32:56;99990.75;;;13.25
70969;BMP280;58630;43.022;25.100;2022-11-15T05:35:27;99997.50;;;13.26
70969;BMP280;58630;43.022;25.100;2022-11-15T05:37:54;99989.94;;;13.24
70969;BMP280;58630;43.022;25.100;2022-11-15T05:40:19;99989.16;;;13.24
70969;BMP280;58630;43.022;25.100;2022-11-15T05:42:45;99997.00;;;13.24
70969;BMP280;58630;43.022;25.100;2022-11-15T05:45:10;99996.19;;;13.23
70969;BMP280;58630;43.022;25.100;2022-11-15T05:47:36;99998.03;;;13.23
70969;BMP280;58630;43.022;25.100;2022-11-15T05:50:03;99995.44;;;13.23
70969;BMP280;58630;43.022;25.100;2022-11-15T05:52:29;100001.69;;;13.22
70969;BMP280;58630;43.022;25.100;2022-11-15T05:54:56;100006.09;;;13.21
70969;BMP280;58630;43.022;25.100;2022-11-15T05:57:21;100008.72;;;13.21
70969;BMP280;58630;43.022;25.100;2022-11-15T05:59:47;100009.50;;;13.22
70969;BMP280;58630;43.022;25.100;2022-11-15T06:02:12;100011.31;;;13.21
70969;BMP280;58630;43.022;25.100;2022-11-15T06:04:37;100004.53;;;13.20
70969;BMP280;58630;43.022;25.100;2022-11-15T06:07:03;100014.19;;;13.20
70969;BMP280;58630;43.022;25.100;2022-11-15T06:09:28;100008.97;;;13.20
70969;BMP280;58630;43.022;25.100;2022-11-15T06:11:53;100007.13;;;13.20
70969;BMP280;58630;43.022;25.100;2022-11-15T06:14:19;100013.47;;;13.19
70969;BMP280;58630;43.022;25.100;2022-11-15T06:16:44;100008.22;;;13.19
70969;BMP280;58630;43.022;25.100;2022-11-15T06:19:09;100012.66;;;13.19
70969;BMP280;58630;43.022;25.100;2022-11-15T06:21:35;100009.28;;;13.18
70969;BMP280;58630;43.022;25.100;2022-11-15T06:24:00;100013.69;;;13.18
70969;BMP280;58630;43.022;25.100;2022-11-15T06:26:25;100008.47;;;13.18
70969;BMP280;58630;43.022;25.100;2022-11-15T06:28:51;100014.72;;;13.17
70969;BMP280;58630;43.022;25.100;2022-11-15T06:31:16;100015.53;;;13.17
70969;BMP280;58630;43.022;25.100;2022-11-15T06:33:41;100012.38;;;13.15
70969;BMP280;58630;43.022;25.100;2022-11-15T06:36:07;100012.38;;;13.15
70969;BMP280;58630;43.022;25.100;2022-11-15T06:38:33;100009.78;;;13.15
70969;BMP280;58630;43.022;25.100;2022-11-15T06:41:02;100014.72;;;13.17
70969;BMP280;58630;43.022;25.100;2022-11-15T06:43:28;100009.50;;;13.17
70969;BMP280;58630;43.022;25.100;2022-11-15T06:45:53;100008.97;;;13.15
70969;BMP280;58630;43.022;25.100;2022-11-15T06:48:18;100011.34;;;13.16
70969;BMP280;58630;43.022;25.100;2022-11-15T06:50:49;100005.59;;;13.14
70969;BMP280;58630;43.022;25.100;2022-11-15T06:53:15;100008.97;;;13.15
70969;BMP280;58630;43.022;25.100;2022-11-15T06:55:40;100010.00;;;13.14
70969;BMP280;58630;43.022;25.100;2022-11-15T06:58:06;100006.34;;;13.15
70969;BMP280;58630;43.022;25.100;2022-11-15T07:00:31;100004.78;;;13.14
70969;BMP280;58630;43.022;25.100;2022-11-15T07:02:59;100004.00;;;13.13
70969;BMP280;58630;43.022;25.100;2022-11-15T07:05:24;99994.34;;;13.14
70969;BMP280;58630;43.022;25.100;2022-11-15T07:07:52;99992.78;;;13.13
70969;BMP280;58630;43.022;25.100;2022-11-15T07:10:18;99996.97;;;13.14
70969;BMP280;58630;43.022;25.100;2022-11-15T07:12:46;99987.56;;;13.13
70969;BMP280;58630;43.022;25.100;2022-11-15T07:15:11;99987.56;;;13.13
70969;BMP280;58630;43.022;25.100;2022-11-15T07:17:37;99992.03;;;13.13
70969;BMP280;58630;43.022;25.100;2022-11-15T07:20:02;99982.34;;;13.13
70969;BMP280;58630;43.022;25.100;2022-11-15T07:22:28;99997.25;;;13.13
70969;BMP280;58630;43.022;25.100;2022-11-15T07:24:53;99991.22;;;13.12
70969;BMP280;58630;43.022;25.100;2022-11-15T07:27:19;99986.81;;;13.13
70969;BMP280;58630;43.022;25.100;2022-11-15T07:29:44;99978.19;;;13.12
70969;BMP280;58630;43.022;25.100;2022-11-15T07:32:09;99981.59;;;13.13
70969;BMP280;58630;43.022;25.100;2022-11-15T07:34:35;99977.13;;;13.13
70969;BMP280;58630;43.022;25.100;2022-11-15T07:37:00;99975.56;;;13.12
70969;BMP280;58630;43.022;25.100;2022-11-15T07:39:25;99975.56;;;13.12
70969;BMP280;58630;43.022;25.100;2022-11-15T07:41:50;99969.59;;;13.12
70969;BMP280;58630;43.022;25.100;2022-11-15T07:44:36;99975.56;;;13.12
70969;BMP280;58630;43.022;25.100;2022-11-15T07:47:01;99970.34;;;13.12
70969;BMP280;58630;43.022;25.100;2022-11-15T07:49:26;99975.56;;;13.12
70969;BMP280;58630;43.022;25.100;2022-11-15T07:51:51;99963.56;;;13.11
70969;BMP280;58630;43.022;25.100;2022-11-15T07:54:17;99960.97;;;13.11
70969;BMP280;58630;43.022;25.100;2022-11-15T07:56:42;99969.59;;;13.12
70969;BMP280;58630;43.022;25.100;2022-11-15T07:59:07;99964.38;;;13.12
70969;BMP280;58630;43.022;25.100;2022-11-15T08:01:32;99965.13;;;13.12
70969;BMP280;58630;43.022;25.100;2022-11-15T08:03:58;99962.00;;;13.10
70969;BMP280;58630;43.022;25.100;2022-11-15T08:06:23;99965.13;;;13.12
70969;BMP280;58630;43.022;25.100;2022-11-15T08:08:48;99959.91;;;13.12
70969;BMP280;58630;43.022;25.100;2022-11-15T08:11:13;99961.47;;;13.13
70969;BMP280;58630;43.022;25.100;2022-11-15T08:13:39;99960.72;;;13.13
70969;BMP280;58630;43.022;25.100;2022-11-15T08:16:04;99965.13;;;13.12
70969;BMP280;58630;43.022;25.100;2022-11-15T08:18:34;99970.34;;;13.12
70969;BMP280;58630;43.022;25.100;2022-11-15T08:21:00;99959.91;;;13.12
70969;BMP280;58630;43.022;25.100;2022-11-15T08:23:25;99957.31;;;13.12
70969;BMP280;58630;43.022;25.100;2022-11-15T08:25:50;99959.91;;;13.12
70969;BMP280;58630;43.022;25.100;2022-11-15T08:28:16;99959.91;;;13.12
70969;BMP280;58630;43.022;25.100;2022-11-15T08:30:42;99954.69;;;13.12
70969;BMP280;58630;43.022;25.100;2022-11-15T08:33:09;99953.94;;;13.12
70969;BMP280;58630;43.022;25.100;2022-11-15T08:35:35;99944.25;;;13.12
70969;BMP280;58630;43.022;25.100;2022-11-15T08:38:00;99949.47;;;13.12
70969;BMP280;58630;43.022;25.100;2022-11-15T08:40:26;99944.25;;;13.12
70969;BMP280;58630;43.022;25.100;2022-11-15T08:42:52;99945.06;;;13.13
70969;BMP280;58630;43.022;25.100;2022-11-15T08:45:17;99940.59;;;13.13
70969;BMP280;58630;43.022;25.100;2022-11-15T08:47:42;99943.19;;;13.13
70969;BMP280;58630;43.022;25.100;2022-11-15T08:50:08;99946.59;;;13.13
70969;BMP280;58630;43.022;25.100;2022-11-15T08:52:33;99930.94;;;13.13
70969;BMP280;58630;43.022;25.100;2022-11-15T08:54:59;99936.94;;;13.14
70969;BMP280;58630;43.022;25.100;2022-11-15T08:57:24;99933.56;;;13.13
70969;BMP280;58630;43.022;25.100;2022-11-15T08:59:49;99924.69;;;13.14
70969;BMP280;58630;43.022;25.100;2022-11-15T09:02:15;99921.28;;;13.14
70969;BMP280;58630;43.022;25.100;2022-11-15T09:04:40;99923.91;;;13.14
70969;BMP280;58630;43.022;25.100;2022-11-15T09:07:06;99913.22;;;13.15
70969;BMP280;58630;43.022;25.100;2022-11-15T09:09:31;99909.56;;;13.16
70969;BMP280;58630;43.022;25.100;2022-11-15T09:11:57;99909.56;;;13.16
70969;BMP280;58630;43.022;25.100;2022-11-15T09:14:22;99899.91;;;13.17
70969;BMP280;58630;43.022;25.100;2022-11-15T09:16:47;99903.31;;;13.17
70969;BMP280;58630;43.022;25.100;2022-11-15T09:19:12;99895.50;;;13.17
70969;BMP280;58630;43.022;25.100;2022-11-15T09:21:39;99902.28;;;13.18
70969;BMP280;58630;43.022;25.100;2022-11-15T09:24:05;99895.22;;;13.19
70969;BMP280;58630;43.022;25.100;2022-11-15T09:26:30;99881.88;;;13.20
70969;BMP280;58630;43.022;25.100;2022-11-15T09:28:55;99883.72;;;13.20
70969;BMP280;58630;43.022;25.100;2022-11-15T09:31:21;99888.94;;;13.20
70969;BMP280;58630;43.022;25.100;2022-11-15T09:33:46;99876.66;;;13.20
70969;BMP280;58630;43.022;25.100;2022-11-15T09:36:12;99869.63;;;13.21
70969;BMP280;58630;43.022;25.100;2022-11-15T09:38:37;99869.63;;;13.21
70969;BMP280;58630;43.022;25.100;2022-11-15T09:41:15;99865.19;;;13.21
70969;BMP280;58630;43.022;25.100;2022-11-15T09:46:24;99852.94;;;13.22
70969;BMP280;58630;43.022;25.100;2022-11-15T09:51:28;99845.88;;;13.22
70969;BMP280;58630;43.022;25.100;2022-11-15T09:56:43;99833.63;;;13.23
70969;BMP280;58630;43.022;25.100;2022-11-15T10:04:47;99828.13;;;13.24
70969;BMP280;58630;43.022;25.100;2022-11-15T10:07:16;99823.72;;;13.25
70969;BMP280;58630;43.022;25.100;2022-11-15T10:12:09;99825.25;;;13.26
70969;BMP280;58630;43.022;25.100;2022-11-15T10:14:35;99821.63;;;13.27
70969;BMP280;58630;43.022;25.100;2022-11-15T10:19:38;99813.50;;;13.28
70969;BMP280;58630;43.022;25.100;2022-11-15T10:24:43;99804.41;;;13.31
70969;BMP280;58630;43.022;25.100;2022-11-15T10:27:10;99806.22;;;13.30
70969;BMP280;58630;43.022;25.100;2022-11-15T10:29:36;99813.00;;;13.31
70969;BMP280;58630;43.022;25.100;2022-11-15T10:32:07;99802.56;;;13.31
70969;BMP280;58630;43.022;25.100;2022-11-15T10:34:34;99797.34;;;13.31
70969;BMP280;58630;43.022;25.100;2022-11-15T10:37:00;99795.53;;;13.32
70969;BMP280;58630;43.022;25.100;2022-11-15T10:39:28;99786.13;;;13.31
70969;BMP280;58630;43.022;25.100;2022-11-15T10:41:54;99792.94;;;13.32
70969;BMP280;58630;43.022;25.100;2022-11-15T10:44:23;99783.22;;;13.32
70969;BMP280;58630;43.022;25.100;2022-11-15T10:49:24;99783.22;;;13.32
70969;BMP280;58630;43.022;25.100;2022-11-15T10:54:37;99778.00;;;13.32
70969;BMP280;58630;43.022;25.100;2022-11-15T10:59:53;99779.56;;;13.33
70969;BMP280;58630;43.022;25.100;2022-11-15T11:02:25;99774.34;;;13.33
70969;BMP280;58630;43.022;25.100;2022-11-15T11:04:52;99772.53;;;13.34
70969;BMP280;58630;43.022;25.100;2022-11-15T11:07:23;99771.50;;;13.35
70969;BMP280;58630;43.022;25.100;2022-11-15T11:09:56;99776.72;;;13.35
70969;BMP280;58630;43.022;25.100;2022-11-15T11:12:26;99765.47;;;13.34
70969;BMP280;58630;43.022;25.100;2022-11-15T11:14:52;99766.28;;;13.35
70969;BMP280;58630;43.022;25.100;2022-11-15T11:17:32;99770.47;;;13.36
70969;BMP280;58630;43.022;25.100;2022-11-15T11:30:19;99749.56;;;13.36
70969;BMP280;58630;43.022;25.100;2022-11-15T11:35:30;99737.31;;;13.36
70969;BMP280;58630;43.022;25.100;2022-11-15T11:38:15;99738.06;;;13.37
70969;BMP280;58630;43.022;25.100;2022-11-15T11:48:43;99717.97;;;13.37
70969;BMP280;58630;43.022;25.100;2022-11-15T11:51:23;99713.53;;;13.38
70969;BMP280;58630;43.022;25.100;2022-11-15T11:53:54;99708.31;;;13.38
70969;BMP280;58630;43.022;25.100;2022-11-15T11:56:27;99703.09;;;13.38
70969;BMP280;58630;43.022;25.100;2022-11-15T11:58:53;99699.41;;;13.39
70969;BMP280;58630;43.022;25.100;2022-11-15T12:03:52;99695.00;;;13.39
70969;BMP280;58630;43.022;25.100;2022-11-15T12:12:06;99681.44;;;13.42
70969;BMP280;58630;43.022;25.100;2022-11-15T12:16:59;99676.97;;;13.43
70969;BMP280;58630;43.022;25.100;2022-11-15T12:19:24;99678.00;;;13.42
70969;BMP280;58630;43.022;25.100;2022-11-15T12:21:54;99670.47;;;13.40
70969;BMP280;58630;43.022;25.100;2022-11-15T12:24:23;99666.53;;;13.43
70969;BMP280;58630;43.022;25.100;2022-11-15T12:26:54;99667.34;;;13.43
70969;BMP280;58630;43.022;25.100;2022-11-15T12:29:26;99658.69;;;13.43
70969;BMP280;58630;43.022;25.100;2022-11-15T12:31:54;99658.69;;;13.43
70969;BMP280;58630;43.022;25.100;2022-11-15T12:36:47;99660.28;;;13.44
70969;BMP280;58630;43.022;25.100;2022-11-15T12:39:14;99654.28;;;13.43
70969;BMP280;58630;43.022;25.100;2022-11-15T12:41:42;99643.84;;;13.43
70969;BMP280;58630;43.022;25.100;2022-11-15T12:44:11;99642.75;;;13.44
70969;BMP280;58630;43.022;25.100;2022-11-15T13:04:43;99624.00;;;13.42
70969;BMP280;58630;43.022;25.100;2022-11-15T13:07:08;99626.59;;;13.42
70969;BMP280;58630;43.022;25.100;2022-11-15T13:09:54;99631.03;;;13.42
70969;BMP280;58630;43.022;25.100;2022-11-15T13:15:00;99621.38;;;13.42
70969;BMP280;58630;43.022;25.100;2022-11-15T13:22:23;99619.81;;;13.41
70969;BMP280;58630;43.022;25.100;2022-11-15T13:27:51;99612.00;;;13.41
70969;BMP280;58630;43.022;25.100;2022-11-15T13:30:20;99608.59;;;13.41
70969;BMP280;58630;43.022;25.100;2022-11-15T13:32:46;99601.78;;;13.40
70969;BMP280;58630;43.022;25.100;2022-11-15T13:35:19;99601.78;;;13.40
70969;BMP280;58630;43.022;25.100;2022-11-15T13:37:45;99601.78;;;13.40
70969;BMP280;58630;43.022;25.100;2022-11-15T13:42:45;99599.47;;;13.38
70969;BMP280;58630;43.022;25.100;2022-11-15T13:45:12;99595.00;;;13.39
70969;BMP280;58630;43.022;25.100;2022-11-15T13:47:38;99596.84;;;13.38
70969;BMP280;58630;43.022;25.100;2022-11-15T13:50:03;99592.41;;;13.39
70969;BMP280;58630;43.022;25.100;2022-11-15T13:52:31;99593.47;;;13.38
70969;BMP280;58630;43.022;25.100;2022-11-15T13:55:04;99593.47;;;13.38
70969;BMP280;58630;43.022;25.100;2022-11-15T14:00:06;99590.38;;;13.36
70969;BMP280;58630;43.022;25.100;2022-11-15T14:02:32;99591.91;;;13.37
70969;BMP280;58630;43.022;25.100;2022-11-15T14:04:59;99589.31;;;13.37
70969;BMP280;58630;43.022;25.100;2022-11-15T14:07:27;99589.56;;;13.35
70969;BMP280;58630;43.022;25.100;2022-11-15T14:09:53;99583.59;;;13.35
70969;BMP280;58630;43.022;25.100;2022-11-15T14:14:46;99582.78;;;13.34
70969;BMP280;58630;43.022;25.100;2022-11-15T14:17:33;99578.91;;;13.32
70969;BMP280;58630;43.022;25.100;2022-11-15T14:19:58;99582.03;;;13.34
70969;BMP280;58630;43.022;25.100;2022-11-15T14:22:25;99580.47;;;13.33
70969;BMP280;58630;43.022;25.100;2022-11-15T14:27:34;99571.09;;;13.32
70969;BMP280;58630;43.022;25.100;2022-11-15T14:30:00;99576.31;;;13.32
70969;BMP280;58630;43.022;25.100;2022-11-15T14:32:29;99569.53;;;13.31
70969;BMP280;58630;43.022;25.100;2022-11-15T14:34:56;99569.53;;;13.31
70969;BMP280;58630;43.022;25.100;2022-11-15T14:39:49;99562.75;;;13.30
70969;BMP280;58630;43.022;25.100;2022-11-15T14:42:15;99558.56;;;13.29
70969;BMP280;58630;43.022;25.100;2022-11-15T14:44:40;99561.94;;;13.29
70969;BMP280;58630;43.022;25.100;2022-11-15T14:47:06;99567.44;;;13.28
70969;BMP280;58630;43.022;25.100;2022-11-15T14:49:31;99559.59;;;13.28
70969;BMP280;58630;43.022;25.100;2022-11-15T14:51:56;99564.03;;;13.27
70969;BMP280;58630;43.022;25.100;2022-11-15T14:54:21;99566.63;;;13.27
70969;BMP280;58630;43.022;25.100;2022-11-15T14:56:47;99561.69;;;13.26
70969;BMP280;58630;43.022;25.100;2022-11-15T14:59:12;99560.16;;;13.25
70969;BMP280;58630;43.022;25.100;2022-11-15T15:01:37;99564.31;;;13.26
70969;BMP280;58630;43.022;25.100;2022-11-15T15:04:02;99560.16;;;13.25
70969;BMP280;58630;43.022;25.100;2022-11-15T15:06:28;99559.09;;;13.26
70969;BMP280;58630;43.022;25.100;2022-11-15T15:08:53;99563.53;;;13.25
70969;BMP280;58630;43.022;25.100;2022-11-15T15:11:23;99549.19;;;13.23
70969;BMP280;58630;43.022;25.100;2022-11-15T15:13:48;99550.78;;;13.24
70969;BMP280;58630;43.022;25.100;2022-11-15T15:16:14;99550.78;;;13.24
70969;BMP280;58630;43.022;25.100;2022-11-15T15:18:39;99555.19;;;13.23
70969;BMP280;58630;43.022;25.100;2022-11-15T15:21:04;99563.81;;;13.24
70969;BMP280;58630;43.022;25.100;2022-11-15T15:23:36;99558.84;;;13.22
70969;BMP280;58630;43.022;25.100;2022-11-15T15:26:01;99561.44;;;13.22
70969;BMP280;58630;43.022;25.100;2022-11-15T15:28:27;99564.84;;;13.23
70969;BMP280;58630;43.022;25.100;2022-11-15T15:30:52;99557.28;;;13.21
70969;BMP280;58630;43.022;25.100;2022-11-15T15:33:18;99554.66;;;13.21
70969;BMP280;58630;43.022;25.100;2022-11-15T15:35:43;99551.28;;;13.21
70969;BMP280;58630;43.022;25.100;2022-11-15T15:38:10;99550.50;;;13.20
70969;BMP280;58630;43.022;25.100;2022-11-15T15:40:36;99549.72;;;13.20
70969;BMP280;58630;43.022;25.100;2022-11-15T15:43:01;99544.50;;;13.20
70969;BMP280;58630;43.022;25.100;2022-11-15T15:45:26;99544.50;;;13.20
70969;BMP280;58630;43.022;25.100;2022-11-15T15:47:52;99542.19;;;13.18
70969;BMP280;58630;43.022;25.100;2022-11-15T15:52:53;99546.63;;;13.18
70969;BMP280;58630;43.022;25.100;2022-11-15T15:55:18;99549.22;;;13.18
70969;BMP280;58630;43.022;25.100;2022-11-15T15:57:44;99543.25;;;13.17
70969;BMP280;58630;43.022;25.100;2022-11-15T16:00:09;99542.44;;;13.17
70969;BMP280;58630;43.022;25.100;2022-11-15T16:02:35;99533.84;;;13.16
70969;BMP280;58630;43.022;25.100;2022-11-15T16:05:02;99536.72;;;13.15
70969;BMP280;58630;43.022;25.100;2022-11-15T16:07:27;99547.16;;;13.15
70969;BMP280;58630;43.022;25.100;2022-11-15T16:09:54;99528.34;;;13.13